Terminal Aerodrome Forecast
Issued by NWS Bismarck, ND

Home | Current Version | Previous Version | Text Only | Print | Product List | Glossary On
Versions: 1 2 3 4 5 6 7 8 9 10 11 12 13 14 15 16 17 18
512
FTUS43 KBIS 102325
TAFISN
TAF
KISN 102325Z 1100/1124 09011KT 4SM -SN OVC040
     FM110200 08009KT 1SM -SN OVC015
     FM110700 07005KT 2SM -SN OVC030
     FM110900 VRB03KT P6SM OVC035
     FM111700 26004KT P6SM BKN040=

USA.gov is the U.S. government's official web portal to all federal, state and local government web resources and services.